Time;durP1;ratioP1;P1;durP2;ratioP2;P2;SDS_P1;SDS_P2;PMS_P1;PMS_P2;Temp;Humidity;BMP_temperature;BMP_pressure;BME280_temperature;BME280_humidity;BME280_pressure;Samples;Min_cycle;Max_cycle;Signal;HPM_P1;HPM_P2
2023/10/24 00:01:03;;;;;;;22.07;12.17;;;;;;;;;;6185405;23;20167;-89
2023/10/24 00:03:32;;;;;;;13.23;6.87;;;;;;;;;;6185330;23;20171;-90
2023/10/24 00:06:03;;;;;;;8.53;7.00;;;;;;;;;;6185320;23;20229;-91
2023/10/24 00:08:33;;;;;;;15.80;8.97;;;;;;;;;;6184635;23;20187;-91
2023/10/24 00:11:03;;;;;;;16.77;9.33;;;;;;;;;;6185292;23;20167;-91
2023/10/24 00:13:32;;;;;;;13.30;8.13;;;;;;;;;;6185304;23;20171;-91
2023/10/24 00:16:00;;;;;;;22.37;8.83;;;;;;;;;;6184481;23;20259;-91
2023/10/24 00:18:29;;;;;;;9.93;5.93;;;;;;;;;;6184365;23;20177;-90
2023/10/24 00:20:57;;;;;;;14.83;8.00;;;;;;;;;;6185457;23;20178;-91
2023/10/24 00:23:28;;;;;;;14.83;8.30;;;;;;;;;;6185415;23;20182;-91
2023/10/24 00:25:58;;;;;;;18.77;9.53;;;;;;;;;;6184638;23;20175;-91
2023/10/24 00:28:29;;;;;;;8.30;6.57;;;;;;;;;;6184518;23;20175;-89
2023/10/24 00:30:58;;;;;;;8.83;4.73;;;;;;;;;;6185641;23;20207;-91
2023/10/24 00:33:27;;;;;;;27.00;13.77;;;;;;;;;;6185060;23;20182;-91
2023/10/24 00:35:55;;;;;;;18.13;8.97;;;;;;;;;;6184409;23;20187;-91
2023/10/24 00:38:24;;;;;;;10.03;7.03;;;;;;;;;;6184997;23;20171;-90
2023/10/24 00:40:52;;;;;;;14.93;6.10;;;;;;;;;;6184818;23;20175;-92
2023/10/24 00:43:22;;;;;;;25.73;12.73;;;;;;;;;;6184616;23;20186;-91
2023/10/24 00:45:51;;;;;;;28.53;16.77;;;;;;;;;;6184539;23;20213;-91
2023/10/24 00:48:20;;;;;;;12.73;7.00;;;;;;;;;;6184899;23;20179;-91
2023/10/24 00:50:48;;;;;;;5.63;4.87;;;;;;;;;;6185301;23;20226;-91
2023/10/24 00:53:18;;;;;;;13.97;7.90;;;;;;;;;;6184669;23;20182;-91
2023/10/24 00:55:47;;;;;;;16.20;8.17;;;;;;;;;;6183861;23;20175;-91
2023/10/24 00:58:16;;;;;;;8.37;5.07;;;;;;;;;;6184572;23;20220;-90
2023/10/24 01:00:46;;;;;;;3.13;2.57;;;;;;;;;;6185007;23;20181;-91
2023/10/24 01:03:14;;;;;;;9.57;5.90;;;;;;;;;;6184904;23;20253;-90
2023/10/24 01:05:44;;;;;;;12.73;8.10;;;;;;;;;;6184067;23;20202;-90
2023/10/24 01:08:13;;;;;;;11.17;6.70;;;;;;;;;;6184380;23;20170;-92
2023/10/24 01:10:41;;;;;;;9.43;6.73;;;;;;;;;;6184894;23;20199;-91
2023/10/24 01:13:10;;;;;;;11.80;7.73;;;;;;;;;;6184478;23;20182;-90
2023/10/24 01:15:39;;;;;;;3.67;3.37;;;;;;;;;;6184235;23;20265;-91
2023/10/24 01:18:09;;;;;;;6.37;4.07;;;;;;;;;;6184840;23;20176;-91
2023/10/24 01:20:39;;;;;;;6.13;5.50;;;;;;;;;;6184840;23;20171;-92
2023/10/24 01:23:10;;;;;;;7.03;4.33;;;;;;;;;;6184233;23;20182;-90
2023/10/24 01:25:40;;;;;;;7.03;5.33;;;;;;;;;;6184032;23;20234;-91
2023/10/24 01:28:09;;;;;;;3.23;2.80;;;;;;;;;;6184385;23;20178;-91
2023/10/24 01:30:38;;;;;;;5.93;3.80;;;;;;;;;;6184855;23;20191;-90
2023/10/24 01:33:07;;;;;;;8.20;5.10;;;;;;;;;;6184561;23;20258;-91
2023/10/24 01:35:35;;;;;;;10.03;6.70;;;;;;;;;;6184478;23;20171;-90
2023/10/24 01:38:04;;;;;;;14.83;7.40;;;;;;;;;;6184000;23;20186;-92
2023/10/24 01:40:34;;;;;;;9.53;6.13;;;;;;;;;;6184455;23;20167;-91
2023/10/24 01:43:03;;;;;;;8.83;5.67;;;;;;;;;;6183856;23;20195;-91
2023/10/24 01:45:32;;;;;;;13.40;7.73;;;;;;;;;;6183867;23;20227;-92
2023/10/24 01:48:00;;;;;;;8.70;6.23;;;;;;;;;;6183891;23;20265;-91
2023/10/24 01:50:29;;;;;;;3.47;2.50;;;;;;;;;;6184690;23;20194;-90
2023/10/24 01:52:58;;;;;;;6.13;4.60;;;;;;;;;;6183686;23;20198;-89
2023/10/24 01:55:27;;;;;;;14.00;6.87;;;;;;;;;;6183903;23;20182;-91
2023/10/24 01:57:57;;;;;;;4.87;3.10;;;;;;;;;;6184128;23;20175;-92
2023/10/24 02:00:26;;;;;;;9.63;5.90;;;;;;;;;;6184281;23;20174;-91
2023/10/24 02:02:54;;;;;;;5.23;4.60;;;;;;;;;;6183752;23;20177;-91
2023/10/24 02:05:23;;;;;;;2.23;1.97;;;;;;;;;;6184726;23;20225;-89
2023/10/24 02:07:51;;;;;;;2.33;2.13;;;;;;;;;;6183906;23;20171;-91
2023/10/24 02:10:20;;;;;;;2.40;2.27;;;;;;;;;;6183866;23;20195;-91
2023/10/24 02:12:49;;;;;;;1.33;1.33;;;;;;;;;;6183725;23;20202;-90
2023/10/24 02:15:19;;;;;;;5.30;3.77;;;;;;;;;;6183832;23;20253;-91
2023/10/24 02:17:47;;;;;;;4.30;3.43;;;;;;;;;;6184291;23;20412;-91
2023/10/24 02:20:16;;;;;;;0.57;0.57;;;;;;;;;;6184473;23;20191;-90
2023/10/24 02:22:48;;;;;;;2.40;2.23;;;;;;;;;;6183331;23;20175;-91
2023/10/24 02:25:16;;;;;;;1.00;1.00;;;;;;;;;;6184930;23;20185;-91
2023/10/24 02:27:45;;;;;;;1.23;1.00;;;;;;;;;;6184064;23;20229;-89
2023/10/24 02:30:14;;;;;;;3.63;3.27;;;;;;;;;;6183990;23;20199;-91
2023/10/24 02:32:43;;;;;;;5.57;4.13;;;;;;;;;;6183754;23;20194;-91
2023/10/24 02:35:12;;;;;;;8.90;7.63;;;;;;;;;;6184421;23;20230;-91
2023/10/24 02:37:40;;;;;;;11.27;7.93;;;;;;;;;;6183898;23;20175;-92
2023/10/24 02:40:10;;;;;;;15.07;9.80;;;;;;;;;;6183905;23;20186;-89
2023/10/24 02:42:38;;;;;;;17.30;10.30;;;;;;;;;;6183434;23;20193;-91
2023/10/24 02:45:08;;;;;;;6.10;4.13;;;;;;;;;;6184325;23;20225;-89
2023/10/24 02:47:36;;;;;;;17.90;12.13;;;;;;;;;;6184363;23;20178;-91
2023/10/24 02:50:07;;;;;;;23.87;16.43;;;;;;;;;;6183879;23;20175;-91
2023/10/24 02:52:37;;;;;;;9.73;6.10;;;;;;;;;;6183487;23;20171;-91
2023/10/24 02:55:08;;;;;;;8.20;5.57;;;;;;;;;;6184467;23;20250;-92
2023/10/24 02:57:37;;;;;;;25.63;15.77;;;;;;;;;;6183960;23;20222;-91
2023/10/24 03:00:07;;;;;;;30.40;19.17;;;;;;;;;;6183873;23;20179;-91
2023/10/24 03:02:35;;;;;;;37.20;21.60;;;;;;;;;;6183886;23;20172;-91
2023/10/24 03:05:04;;;;;;;33.13;18.87;;;;;;;;;;6184885;23;20175;-90
2023/10/24 03:07:34;;;;;;;30.03;18.40;;;;;;;;;;6185899;23;20181;-92
2023/10/24 03:10:03;;;;;;;33.97;19.77;;;;;;;;;;6185608;23;20194;-92
2023/10/24 03:12:32;;;;;;;16.30;9.47;;;;;;;;;;6185589;23;20181;-90
2023/10/24 03:15:00;;;;;;;36.90;23.23;;;;;;;;;;6185856;23;20242;-90
2023/10/24 03:17:29;;;;;;;9.93;6.97;;;;;;;;;;6185362;23;20227;-90
2023/10/24 03:19:57;;;;;;;30.87;18.97;;;;;;;;;;6185271;23;20230;-91
2023/10/24 03:22:26;;;;;;;27.37;16.03;;;;;;;;;;6185869;23;20266;-91
2023/10/24 03:24:57;;;;;;;21.03;12.67;;;;;;;;;;6186355;23;20171;-91
2023/10/24 03:27:26;;;;;;;38.47;22.97;;;;;;;;;;6185384;23;20236;-91
2023/10/24 03:29:54;;;;;;;26.67;16.40;;;;;;;;;;6184800;23;20203;-91
2023/10/24 03:32:23;;;;;;;27.97;14.20;;;;;;;;;;6185306;23;20191;-92
2023/10/24 03:34:51;;;;;;;27.73;15.40;;;;;;;;;;6185709;23;20179;-90
2023/10/24 03:37:20;;;;;;;27.30;16.70;;;;;;;;;;6185412;23;20175;-90
2023/10/24 03:39:48;;;;;;;26.90;16.27;;;;;;;;;;6184842;23;20175;-90
2023/10/24 03:42:18;;;;;;;28.60;19.03;;;;;;;;;;6185836;23;20179;-91
2023/10/24 03:44:47;;;;;;;38.10;22.33;;;;;;;;;;6185356;23;20171;-90
2023/10/24 03:47:15;;;;;;;38.10;21.50;;;;;;;;;;6185408;23;20183;-90
2023/10/24 03:49:44;;;;;;;23.63;13.17;;;;;;;;;;6185075;23;20179;-91
2023/10/24 03:52:12;;;;;;;30.90;19.07;;;;;;;;;;6185480;23;20187;-91
2023/10/24 03:54:41;;;;;;;29.23;19.03;;;;;;;;;;6186285;23;20183;-91
2023/10/24 03:57:09;;;;;;;27.20;15.53;;;;;;;;;;6185561;23;20171;-90
2023/10/24 03:59:39;;;;;;;32.20;20.97;;;;;;;;;;6185214;23;20185;-91
2023/10/24 04:02:08;;;;;;;35.03;22.73;;;;;;;;;;6186420;23;20179;-91
2023/10/24 04:04:36;;;;;;;34.20;22.10;;;;;;;;;;6185661;23;20202;-91
2023/10/24 04:07:05;;;;;;;36.40;23.80;;;;;;;;;;6185376;23;20175;-90
2023/10/24 04:09:34;;;;;;;33.17;21.20;;;;;;;;;;6185000;23;20285;-90
2023/10/24 04:12:07;;;;;;;29.60;22.07;;;;;;;;;;6185610;23;20198;-92
2023/10/24 04:14:35;;;;;;;30.43;22.53;;;;;;;;;;6185469;23;20178;-91
2023/10/24 04:17:06;;;;;;;26.90;19.17;;;;;;;;;;6184189;23;20199;-91
2023/10/24 04:19:35;;;;;;;19.90;16.33;;;;;;;;;;6184600;23;20274;-91
2023/10/24 04:22:03;;;;;;;36.80;23.37;;;;;;;;;;6185873;23;20167;-90
2023/10/24 04:24:32;;;;;;;32.13;24.37;;;;;;;;;;6185562;23;20179;-92
2023/10/24 04:27:00;;;;;;;33.93;21.37;;;;;;;;;;6184876;23;20186;-90
2023/10/24 04:29:31;;;;;;;30.30;18.17;;;;;;;;;;6184977;23;20186;-90
2023/10/24 04:31:59;;;;;;;33.40;19.57;;;;;;;;;;6185254;23;20197;-90
2023/10/24 04:34:29;;;;;;;27.87;20.63;;;;;;;;;;6185613;23;20179;-90
2023/10/24 04:36:58;;;;;;;32.97;21.33;;;;;;;;;;6184456;23;20265;-91
2023/10/24 04:39:26;;;;;;;25.30;17.27;;;;;;;;;;6184649;23;20171;-91
2023/10/24 04:41:55;;;;;;;36.90;25.73;;;;;;;;;;6185068;23;20217;-90
2023/10/24 04:44:23;;;;;;;37.63;21.50;;;;;;;;;;6184989;23;20217;-90
2023/10/24 04:46:52;;;;;;;31.60;19.53;;;;;;;;;;6184179;23;20187;-90
2023/10/24 04:49:20;;;;;;;42.80;29.27;;;;;;;;;;6184534;23;20171;-90
2023/10/24 04:51:51;;;;;;;40.33;29.90;;;;;;;;;;6184970;23;20191;-90
2023/10/24 04:54:20;;;;;;;38.27;23.60;;;;;;;;;;6184974;23;20183;-91
2023/10/24 04:56:48;;;;;;;30.40;17.47;;;;;;;;;;6184055;23;20179;-90
2023/10/24 04:59:18;;;;;;;47.13;26.80;;;;;;;;;;6185020;23;20168;-91
2023/10/24 05:01:46;;;;;;;49.27;28.50;;;;;;;;;;6185377;23;20203;-90
2023/10/24 05:04:15;;;;;;;37.30;18.80;;;;;;;;;;6184734;23;20171;-89
2023/10/24 05:06:44;;;;;;;38.57;22.97;;;;;;;;;;6184201;23;20177;-90
2023/10/24 05:09:16;;;;;;;52.27;29.90;;;;;;;;;;6184570;23;20214;-90
2023/10/24 05:11:44;;;;;;;37.93;24.87;;;;;;;;;;6184825;23;20202;-91
2023/10/24 05:14:13;;;;;;;44.77;31.97;;;;;;;;;;6184862;23;20181;-90
2023/10/24 05:16:44;;;;;;;29.23;15.13;;;;;;;;;;6184204;23;20231;-90
2023/10/24 05:19:13;;;;;;;35.33;22.83;;;;;;;;;;6184626;23;20285;-91
2023/10/24 05:21:41;;;;;;;43.37;26.70;;;;;;;;;;6184497;23;20237;-90
2023/10/24 05:24:10;;;;;;;47.63;33.60;;;;;;;;;;6184626;23;20171;-90
2023/10/24 05:26:40;;;;;;;41.93;25.30;;;;;;;;;;6184642;23;20190;-89
2023/10/24 05:29:08;;;;;;;43.93;27.37;;;;;;;;;;6185979;23;20175;-89
2023/10/24 05:31:37;;;;;;;34.87;21.37;;;;;;;;;;6185706;23;20186;-89
2023/10/24 05:34:05;;;;;;;38.77;25.60;;;;;;;;;;6187031;23;20171;-88
2023/10/24 05:36:34;;;;;;;38.77;26.97;;;;;;;;;;6185401;23;20175;-89
2023/10/24 05:39:02;;;;;;;33.23;21.40;;;;;;;;;;6185382;23;20179;-88
2023/10/24 05:41:31;;;;;;;34.03;22.93;;;;;;;;;;6185889;23;20206;-88
2023/10/24 05:44:01;;;;;;;39.23;32.27;;;;;;;;;;6185872;23;20174;-88
2023/10/24 05:46:30;;;;;;;29.23;19.77;;;;;;;;;;6185853;23;20175;-88
2023/10/24 05:48:58;;;;;;;38.80;25.37;;;;;;;;;;6184956;23;20182;-88
2023/10/24 05:51:29;;;;;;;42.37;32.23;;;;;;;;;;6184690;23;20178;-88
2023/10/24 05:53:58;;;;;;;34.27;22.27;;;;;;;;;;6185348;23;20222;-88
2023/10/24 05:56:27;;;;;;;35.80;25.60;;;;;;;;;;6184710;23;20266;-88
2023/10/24 05:58:55;;;;;;;35.33;29.53;;;;;;;;;;6185561;23;20213;-87
2023/10/24 06:01:25;;;;;;;25.57;19.60;;;;;;;;;;6184706;23;20171;-86
2023/10/24 06:03:54;;;;;;;34.97;24.43;;;;;;;;;;6185388;23;20175;-88
2023/10/24 06:06:23;;;;;;;31.97;23.00;;;;;;;;;;6185247;23;20175;-87
2023/10/24 06:08:51;;;;;;;38.17;29.73;;;;;;;;;;6186318;23;20348;-88
2023/10/24 06:11:20;;;;;;;33.77;22.93;;;;;;;;;;6184719;23;20183;-87
2023/10/24 06:13:48;;;;;;;31.47;25.90;;;;;;;;;;6185056;23;20620;-88
2023/10/24 06:16:17;;;;;;;31.47;24.83;;;;;;;;;;6185136;23;20207;-87
2023/10/24 06:18:49;;;;;;;34.37;19.77;;;;;;;;;;6184753;23;20263;-86
2023/10/24 06:21:18;;;;;;;27.97;21.50;;;;;;;;;;6186569;23;20179;-88
2023/10/24 06:23:46;;;;;;;37.97;28.43;;;;;;;;;;6185588;23;20168;-86
2023/10/24 06:26:15;;;;;;;20.30;15.13;;;;;;;;;;6186369;23;20202;-87
2023/10/24 06:28:44;;;;;;;35.33;25.80;;;;;;;;;;6187406;23;20179;-85
2023/10/24 06:31:13;;;;;;;34.33;23.43;;;;;;;;;;6186382;23;20183;-87
2023/10/24 06:33:42;;;;;;;35.50;28.90;;;;;;;;;;6185498;23;20195;-88
2023/10/24 06:36:12;;;;;;;33.10;26.80;;;;;;;;;;6185234;23;20266;-88
2023/10/24 06:38:41;;;;;;;32.73;27.53;;;;;;;;;;6185278;23;20187;-89
2023/10/24 06:41:10;;;;;;;39.60;32.90;;;;;;;;;;6184805;23;20261;-87
2023/10/24 06:43:39;;;;;;;38.87;23.60;;;;;;;;;;6184528;23;20366;-87
2023/10/24 06:46:07;;;;;;;39.33;30.07;;;;;;;;;;6186219;23;20202;-85
2023/10/24 06:48:36;;;;;;;35.00;23.80;;;;;;;;;;6187858;23;20182;-87
2023/10/24 06:51:06;;;;;;;32.20;21.17;;;;;;;;;;6192017;23;20188;-85
2023/10/24 06:53:35;;;;;;;41.50;32.03;;;;;;;;;;6190150;23;20199;-87
2023/10/24 06:56:04;;;;;;;47.43;32.50;;;;;;;;;;6190958;23;20186;-85
2023/10/24 06:58:32;;;;;;;32.13;20.37;;;;;;;;;;6185885;23;20203;-86
2023/10/24 07:01:01;;;;;;;38.73;26.03;;;;;;;;;;6187237;23;20181;-86
2023/10/24 07:03:30;;;;;;;41.87;28.97;;;;;;;;;;6186059;23;20195;-86
2023/10/24 07:05:59;;;;;;;48.77;35.93;;;;;;;;;;6185580;23;20207;-85
2023/10/24 07:08:27;;;;;;;51.77;33.57;;;;;;;;;;6185492;23;20178;-86
2023/10/24 07:10:59;;;;;;;49.93;31.03;;;;;;;;;;6185717;23;20172;-86
2023/10/24 07:13:29;;;;;;;50.33;28.17;;;;;;;;;;6185670;23;20187;-86
2023/10/24 07:15:58;;;;;;;52.43;34.07;;;;;;;;;;6185717;23;20226;-85
2023/10/24 07:18:26;;;;;;;46.10;34.27;;;;;;;;;;6185963;23;20179;-86
2023/10/24 07:20:58;;;;;;;47.50;34.60;;;;;;;;;;6185827;23;20246;-86
2023/10/24 07:23:27;;;;;;;43.63;37.57;;;;;;;;;;6185307;23;20183;-86
2023/10/24 07:25:59;;;;;;;44.43;37.07;;;;;;;;;;6185232;23;20175;-86
2023/10/24 07:28:27;;;;;;;36.10;26.83;;;;;;;;;;6184941;23;20209;-85
2023/10/24 07:30:56;;;;;;;33.20;25.67;;;;;;;;;;6186652;23;20171;-86
2023/10/24 07:33:25;;;;;;;41.60;32.67;;;;;;;;;;6183498;23;20218;-85
2023/10/24 07:35:53;;;;;;;43.30;32.23;;;;;;;;;;6184649;23;20180;-85
2023/10/24 07:38:22;;;;;;;42.40;32.90;;;;;;;;;;6184960;23;20182;-85
2023/10/24 07:40:51;;;;;;;45.37;32.57;;;;;;;;;;6185212;23;20179;-86
2023/10/24 07:43:21;;;;;;;43.23;33.73;;;;;;;;;;6184761;23;20227;-84
2023/10/24 07:45:50;;;;;;;34.00;22.40;;;;;;;;;;6185679;23;20175;-85
2023/10/24 07:48:19;;;;;;;27.73;21.90;;;;;;;;;;6183859;23;20186;-85
2023/10/24 07:50:51;;;;;;;24.10;17.27;;;;;;;;;;6183885;23;20254;-85
2023/10/24 07:53:20;;;;;;;38.87;31.90;;;;;;;;;;6185942;23;20194;-81
2023/10/24 07:55:49;;;;;;;36.17;31.77;;;;;;;;;;6186339;23;20182;-80
2023/10/24 07:58:18;;;;;;;39.33;33.23;;;;;;;;;;6186171;23;20168;-80
2023/10/24 08:00:47;;;;;;;39.87;30.77;;;;;;;;;;6185499;23;20175;-81
2023/10/24 08:03:17;;;;;;;32.23;24.43;;;;;;;;;;6186027;23;20172;-81
2023/10/24 08:05:46;;;;;;;35.17;23.27;;;;;;;;;;6185629;23;20171;-82
2023/10/24 08:08:14;;;;;;;35.60;26.97;;;;;;;;;;6185706;23;20172;-81
2023/10/24 08:10:43;;;;;;;31.07;21.57;;;;;;;;;;6185971;23;20183;-81
2023/10/24 08:13:11;;;;;;;37.63;29.67;;;;;;;;;;6185871;23;20183;-81
2023/10/24 08:15:40;;;;;;;38.67;33.90;;;;;;;;;;6185758;23;20229;-81
2023/10/24 08:18:10;;;;;;;36.60;32.70;;;;;;;;;;6185500;23;20288;-82
2023/10/24 08:20:38;;;;;;;30.47;23.67;;;;;;;;;;6186095;23;20175;-81
2023/10/24 08:23:07;;;;;;;30.17;25.67;;;;;;;;;;6186208;23;20184;-81
2023/10/24 08:25:35;;;;;;;27.30;18.57;;;;;;;;;;6186242;23;20183;-81
2023/10/24 08:28:04;;;;;;;27.63;19.23;;;;;;;;;;6185248;23;20179;-81
2023/10/24 08:30:33;;;;;;;28.53;24.03;;;;;;;;;;6185573;23;20176;-81
2023/10/24 08:33:01;;;;;;;32.23;26.23;;;;;;;;;;6185743;23;20178;-81
2023/10/24 08:35:31;;;;;;;25.10;22.23;;;;;;;;;;6185852;23;20217;-81
2023/10/24 08:38:00;;;;;;;26.67;23.33;;;;;;;;;;6185887;23;20179;-82
2023/10/24 08:40:28;;;;;;;30.00;24.07;;;;;;;;;;6185303;23;20185;-82
2023/10/24 08:42:57;;;;;;;30.30;25.30;;;;;;;;;;6185738;23;20194;-80
2023/10/24 08:45:26;;;;;;;23.43;20.40;;;;;;;;;;6185611;23;20203;-81
2023/10/24 08:47:55;;;;;;;34.33;30.83;;;;;;;;;;6185394;23;20183;-82
2023/10/24 08:50:24;;;;;;;28.70;23.30;;;;;;;;;;6185602;23;20310;-81
2023/10/24 08:52:54;;;;;;;31.13;27.87;;;;;;;;;;6185918;23;20194;-81
2023/10/24 08:55:22;;;;;;;35.23;32.13;;;;;;;;;;6185754;23;20191;-81
2023/10/24 08:57:51;;;;;;;31.83;28.67;;;;;;;;;;6185277;23;20182;-81
2023/10/24 09:00:19;;;;;;;33.80;30.67;;;;;;;;;;6184958;23;20178;-81
2023/10/24 09:02:48;;;;;;;27.47;24.57;;;;;;;;;;6185021;23;20175;-81
2023/10/24 09:05:17;;;;;;;15.27;13.40;;;;;;;;;;6185531;23;20261;-81
2023/10/24 09:07:45;;;;;;;33.03;29.80;;;;;;;;;;6184773;23;20171;-81
2023/10/24 09:10:15;;;;;;;23.47;17.47;;;;;;;;;;6185354;23;20179;-81
2023/10/24 09:12:44;;;;;;;22.53;16.90;;;;;;;;;;6185396;23;20225;-81
2023/10/24 09:15:12;;;;;;;28.07;25.17;;;;;;;;;;6185244;23;20206;-81
2023/10/24 09:17:41;;;;;;;24.97;18.93;;;;;;;;;;6184877;23;20187;-82
2023/10/24 09:20:13;;;;;;;23.37;20.87;;;;;;;;;;6183203;23;20199;-82
2023/10/24 09:22:42;;;;;;;20.57;18.33;;;;;;;;;;6183821;23;20175;-81
2023/10/24 09:25:21;;;;;;;32.53;30.07;;;;;;;;;;6184617;23;20183;-81
2023/10/24 09:27:53;;;;;;;22.93;20.57;;;;;;;;;;6181952;23;20171;-82
2023/10/24 09:30:23;;;;;;;22.73;20.53;;;;;;;;;;6184929;23;20179;-82
2023/10/24 09:32:55;;;;;;;23.67;21.57;;;;;;;;;;6185547;23;20198;-82
2023/10/24 09:35:23;;;;;;;24.03;19.77;;;;;;;;;;6185618;23;20199;-82
2023/10/24 09:37:52;;;;;;;14.50;12.97;;;;;;;;;;6184976;23;20180;-82
2023/10/24 09:40:22;;;;;;;21.23;19.23;;;;;;;;;;6185795;23;20180;-82
2023/10/24 09:42:51;;;;;;;18.73;17.00;;;;;;;;;;6184967;23;20171;-82
2023/10/24 09:45:20;;;;;;;22.80;20.63;;;;;;;;;;6185160;23;20171;-82
2023/10/24 09:47:50;;;;;;;20.53;18.37;;;;;;;;;;6184719;23;20233;-82
2023/10/24 09:50:20;;;;;;;26.13;23.73;;;;;;;;;;6185161;23;20239;-82
2023/10/24 09:52:48;;;;;;;18.57;16.37;;;;;;;;;;6185021;23;20201;-82
2023/10/24 09:55:17;;;;;;;20.83;18.73;;;;;;;;;;6184949;23;20210;-82
2023/10/24 09:57:48;;;;;;;12.63;11.17;;;;;;;;;;6184493;23;20171;-82
2023/10/24 10:00:18;;;;;;;22.90;20.60;;;;;;;;;;6185289;23;20175;-82
2023/10/24 10:02:46;;;;;;;18.00;15.17;;;;;;;;;;6184867;23;20195;-82
2023/10/24 10:05:15;;;;;;;19.23;17.27;;;;;;;;;;6184532;23;20224;-82
2023/10/24 10:07:46;;;;;;;17.73;15.97;;;;;;;;;;6185079;23;20191;-82
2023/10/24 10:10:15;;;;;;;14.47;13.07;;;;;;;;;;6185116;23;20210;-82
2023/10/24 10:12:44;;;;;;;18.90;17.23;;;;;;;;;;6185017;23;20183;-83
2023/10/24 10:15:29;;;;;;;21.73;19.63;;;;;;;;;;6184162;23;20183;-81
2023/10/24 10:18:05;;;;;;;14.03;12.63;;;;;;;;;;6185252;23;20190;-81
2023/10/24 10:20:41;;;;;;;17.97;16.37;;;;;;;;;;6184872;23;20210;-81
2023/10/24 10:23:27;;;;;;;15.23;13.63;;;;;;;;;;6185011;23;20189;-81
2023/10/24 10:25:59;;;;;;;15.90;14.20;;;;;;;;;;6184934;23;20171;-81
2023/10/24 10:28:33;;;;;;;16.90;15.17;;;;;;;;;;6184898;23;20172;-82
2023/10/24 10:31:08;;;;;;;19.37;17.63;;;;;;;;;;6185169;23;20168;-81
2023/10/24 10:33:57;;;;;;;16.20;14.60;;;;;;;;;;6184498;23;20191;-81
2023/10/24 10:36:26;;;;;;;21.33;19.37;;;;;;;;;;6184612;23;20209;-81
2023/10/24 10:39:00;;;;;;;22.47;20.17;;;;;;;;;;6185093;23;20239;-81
2023/10/24 10:41:36;;;;;;;21.20;17.40;;;;;;;;;;6184694;23;20237;-81
2023/10/24 10:44:25;;;;;;;18.10;14.47;;;;;;;;;;6184527;23;20181;-80
2023/10/24 10:47:01;;;;;;;22.33;20.13;;;;;;;;;;6184633;23;20186;-80
2023/10/24 10:49:39;;;;;;;21.77;19.57;;;;;;;;;;6184794;23;20230;-81
2023/10/24 10:52:10;;;;;;;18.57;16.63;;;;;;;;;;6184985;23;20182;-81
2023/10/24 10:54:41;;;;;;;22.00;19.90;;;;;;;;;;6184471;23;20214;-81
2023/10/24 10:57:10;;;;;;;22.70;20.23;;;;;;;;;;6184489;23;20202;-81
2023/10/24 10:59:44;;;;;;;16.70;14.90;;;;;;;;;;6184509;23;20175;-80
2023/10/24 11:02:38;;;;;;;12.97;10.70;;;;;;;;;;6184616;23;20198;-81
2023/10/24 11:05:24;;;;;;;20.80;18.73;;;;;;;;;;6184370;23;20257;-81
2023/10/24 11:07:54;;;;;;;20.53;18.70;;;;;;;;;;6184706;23;20186;-81
2023/10/24 11:10:22;;;;;;;18.47;16.60;;;;;;;;;;6184957;23;20262;-81
2023/10/24 11:12:51;;;;;;;18.83;16.80;;;;;;;;;;6184725;23;20171;-81
2023/10/24 11:15:29;;;;;;;24.73;22.53;;;;;;;;;;6183951;23;20203;-81
2023/10/24 11:17:59;;;;;;;13.77;10.83;;;;;;;;;;6184568;23;20194;-80
2023/10/24 11:20:28;;;;;;;22.17;20.17;;;;;;;;;;6184773;23;20262;-82
2023/10/24 11:22:57;;;;;;;22.97;20.60;;;;;;;;;;6184873;23;20175;-81
2023/10/24 11:25:27;;;;;;;16.87;14.53;;;;;;;;;;6184926;23;20175;-81
2023/10/24 11:27:55;;;;;;;23.33;19.23;;;;;;;;;;6186721;23;20270;-82
2023/10/24 11:30:25;;;;;;;22.47;20.20;;;;;;;;;;6186636;23;20179;-81
2023/10/24 11:32:53;;;;;;;25.07;23.00;;;;;;;;;;6186542;23;20178;-81
2023/10/24 11:35:24;;;;;;;20.60;18.80;;;;;;;;;;6186459;23;20233;-81
2023/10/24 11:37:52;;;;;;;17.63;15.83;;;;;;;;;;6186893;23;20183;-81
2023/10/24 11:40:21;;;;;;;20.00;18.03;;;;;;;;;;6186426;23;20175;-81
2023/10/24 11:42:50;;;;;;;20.93;19.03;;;;;;;;;;6186014;23;20195;-81
2023/10/24 11:45:18;;;;;;;18.53;16.70;;;;;;;;;;6186519;23;20171;-81
2023/10/24 11:47:47;;;;;;;11.63;10.50;;;;;;;;;;6186495;23;20250;-81
2023/10/24 11:50:15;;;;;;;15.50;13.90;;;;;;;;;;6186862;23;20210;-81
2023/10/24 11:52:45;;;;;;;15.27;13.63;;;;;;;;;;6186438;23;20242;-81
2023/10/24 11:55:14;;;;;;;16.17;14.60;;;;;;;;;;6186144;23;20187;-81
2023/10/24 11:57:42;;;;;;;15.17;13.87;;;;;;;;;;6186580;23;20175;-81
2023/10/24 12:00:16;;;;;;;11.83;10.57;;;;;;;;;;6186169;23;20222;-81
2023/10/24 12:02:45;;;;;;;9.40;8.40;;;;;;;;;;6186035;23;20258;-81
2023/10/24 12:05:14;;;;;;;13.90;12.70;;;;;;;;;;6186067;23;20167;-82
2023/10/24 12:07:43;;;;;;;13.10;11.83;;;;;;;;;;6186198;23;20175;-80
2023/10/24 12:10:13;;;;;;;13.23;11.67;;;;;;;;;;6186629;23;20290;-81
2023/10/24 12:12:43;;;;;;;9.20;8.37;;;;;;;;;;6185672;23;20178;-81
2023/10/24 12:15:12;;;;;;;9.47;8.57;;;;;;;;;;6185947;23;20171;-81
2023/10/24 12:17:44;;;;;;;10.90;9.13;;;;;;;;;;6185717;23;20171;-81
2023/10/24 12:20:13;;;;;;;10.53;9.63;;;;;;;;;;6185745;23;20258;-81
2023/10/24 12:22:46;;;;;;;9.63;8.60;;;;;;;;;;6186248;23;20282;-80
2023/10/24 12:25:17;;;;;;;6.73;5.47;;;;;;;;;;6185790;23;20175;-82
2023/10/24 12:27:46;;;;;;;8.90;8.00;;;;;;;;;;6186083;23;20175;-82
2023/10/24 12:30:15;;;;;;;7.23;6.33;;;;;;;;;;6186092;23;20179;-81
2023/10/24 12:32:43;;;;;;;8.87;7.63;;;;;;;;;;6185929;23;20183;-81
2023/10/24 12:35:12;;;;;;;5.90;5.27;;;;;;;;;;6185905;23;20234;-81
2023/10/24 12:37:41;;;;;;;8.80;5.97;;;;;;;;;;6185068;23;20171;-81
2023/10/24 12:40:10;;;;;;;6.53;5.43;;;;;;;;;;6185729;23;20179;-81
2023/10/24 12:42:40;;;;;;;3.60;3.30;;;;;;;;;;6185285;23;20171;-81
2023/10/24 12:45:09;;;;;;;7.27;3.70;;;;;;;;;;6185497;23;20206;-82
2023/10/24 12:47:37;;;;;;;4.03;3.63;;;;;;;;;;6185525;23;20178;-81
2023/10/24 12:50:06;;;;;;;5.93;2.73;;;;;;;;;;6185079;23;20174;-81
2023/10/24 12:52:35;;;;;;;3.43;2.53;;;;;;;;;;6184915;23;20175;-81
2023/10/24 12:55:04;;;;;;;4.77;3.20;;;;;;;;;;6185467;23;20255;-81
2023/10/24 12:57:33;;;;;;;7.27;4.03;;;;;;;;;;6185715;23;20221;-81
2023/10/24 13:00:03;;;;;;;4.97;2.53;;;;;;;;;;6185434;23;20222;-81
2023/10/24 13:02:32;;;;;;;3.40;1.43;;;;;;;;;;6185732;23;20175;-81
2023/10/24 13:05:00;;;;;;;6.23;1.97;;;;;;;;;;6185852;23;20193;-81
2023/10/24 13:07:29;;;;;;;2.40;1.87;;;;;;;;;;6185495;23;20176;-81
2023/10/24 13:09:57;;;;;;;9.17;2.03;;;;;;;;;;6185587;23;20198;-81
2023/10/24 13:12:26;;;;;;;7.63;4.03;;;;;;;;;;6185499;23;20263;-81
2023/10/24 13:14:55;;;;;;;2.93;2.10;;;;;;;;;;6185629;23;20175;-81
2023/10/24 13:17:24;;;;;;;5.50;2.20;;;;;;;;;;6184895;23;20203;-83
2023/10/24 13:19:53;;;;;;;5.27;2.50;;;;;;;;;;6184739;23;20195;-83
2023/10/24 13:22:22;;;;;;;9.40;1.80;;;;;;;;;;6184597;23;20171;-83
2023/10/24 13:24:51;;;;;;;6.53;2.47;;;;;;;;;;6185180;23;20185;-83
2023/10/24 13:27:19;;;;;;;3.43;1.30;;;;;;;;;;6184604;23;20167;-83
2023/10/24 13:29:48;;;;;;;3.80;1.80;;;;;;;;;;6184330;23;20183;-83
2023/10/24 13:32:16;;;;;;;6.13;1.57;;;;;;;;;;6184878;23;20175;-83
2023/10/24 13:34:46;;;;;;;7.77;2.90;;;;;;;;;;6184878;23;20179;-86
2023/10/24 13:37:18;;;;;;;5.27;1.70;;;;;;;;;;6184795;23;20191;-85
2023/10/24 13:39:46;;;;;;;7.33;2.97;;;;;;;;;;6183849;23;20434;-85
2023/10/24 13:42:15;;;;;;;9.13;2.70;;;;;;;;;;6184070;23;20171;-85
2023/10/24 13:44:44;;;;;;;7.10;2.40;;;;;;;;;;6184411;23;20179;-85
2023/10/24 13:47:12;;;;;;;7.10;2.03;;;;;;;;;;6183921;23;20250;-85
2023/10/24 13:49:41;;;;;;;7.77;2.53;;;;;;;;;;6182862;23;20171;-85
2023/10/24 13:52:13;;;;;;;7.40;2.57;;;;;;;;;;6183989;23;20262;-85
2023/10/24 13:54:42;;;;;;;12.33;2.70;;;;;;;;;;6183967;23;20273;-85
2023/10/24 13:57:10;;;;;;;10.37;2.93;;;;;;;;;;6183410;23;20195;-85
2023/10/24 13:59:39;;;;;;;8.77;2.13;;;;;;;;;;6183453;23;20250;-85
2023/10/24 14:02:09;;;;;;;7.13;2.27;;;;;;;;;;6184099;23;20266;-86
2023/10/24 14:04:38;;;;;;;2.63;1.07;;;;;;;;;;6183955;23;20167;-85
2023/10/24 14:07:06;;;;;;;4.20;1.80;;;;;;;;;;6183306;23;20282;-85
2023/10/24 14:09:36;;;;;;;2.93;1.53;;;;;;;;;;6183470;23;20179;-85
2023/10/24 14:12:05;;;;;;;7.50;1.80;;;;;;;;;;6184029;23;20211;-85
2023/10/24 14:14:34;;;;;;;8.43;3.20;;;;;;;;;;6183777;23;20179;-86
2023/10/24 14:17:03;;;;;;;4.63;3.73;;;;;;;;;;6182972;23;20214;-85
2023/10/24 14:19:31;;;;;;;6.70;2.20;;;;;;;;;;6183700;23;20314;-85
2023/10/24 14:22:00;;;;;;;8.47;2.27;;;;;;;;;;6184480;23;20233;-85
2023/10/24 14:24:29;;;;;;;5.60;2.03;;;;;;;;;;6184367;23;20175;-86
2023/10/24 14:26:59;;;;;;;4.13;2.27;;;;;;;;;;6183554;23;20177;-86
2023/10/24 14:29:27;;;;;;;5.87;2.10;;;;;;;;;;6184316;23;20178;-85
2023/10/24 14:31:56;;;;;;;5.50;2.00;;;;;;;;;;6184048;23;20175;-85
2023/10/24 14:34:25;;;;;;;7.37;2.10;;;;;;;;;;6184437;23;20206;-85
2023/10/24 14:36:57;;;;;;;4.67;1.97;;;;;;;;;;6184709;23;20204;-87
2023/10/24 14:39:25;;;;;;;6.73;2.70;;;;;;;;;;6183555;23;20185;-87